createdAt,value
2023-01-03T00:00:53.489Z,102592.47
2023-01-03T00:03:20.026Z,102598.38
2023-01-03T00:05:48.626Z,102588.13
2023-01-03T00:08:18.368Z,102598.38
2023-01-03T00:10:44.862Z,102585.75
2023-01-03T00:13:11.338Z,102597.03
2023-01-03T00:15:38.624Z,102598.84
2023-01-03T00:18:05.562Z,102598.59
2023-01-03T00:20:34.370Z,102607.19
2023-01-03T00:23:02.045Z,102606.13
2023-01-03T00:25:29.132Z,102611.19
2023-01-03T00:27:55.779Z,102612.31
2023-01-03T00:30:22.612Z,102616.38
2023-01-03T00:32:49.092Z,102618.78
2023-01-03T00:35:15.580Z,102621.25
2023-01-03T00:37:42.040Z,102624.97
2023-01-03T00:40:09.255Z,102616.63
2023-01-03T00:42:55.649Z,102619.06
2023-01-03T00:45:25.417Z,102622.59
2023-01-03T00:47:52.287Z,102614.00
2023-01-03T00:50:18.806Z,102616.69
2023-01-03T00:52:45.246Z,102620.19
2023-01-03T00:55:11.858Z,102619.41
2023-01-03T00:57:38.359Z,102625.56
2023-01-03T01:00:05.169Z,102625.88
2023-01-03T01:02:31.924Z,102621.84
2023-01-03T01:04:58.527Z,102628.53
2023-01-03T01:07:25.163Z,102633.66
2023-01-03T01:09:51.609Z,102633.94
2023-01-03T01:12:18.116Z,102636.63
2023-01-03T01:14:44.613Z,102636.06
2023-01-03T01:17:11.117Z,102642.53
2023-01-03T01:19:40.420Z,102639.56
2023-01-03T01:22:07.992Z,102653.28
2023-01-03T01:24:34.747Z,102648.97
2023-01-03T01:27:01.554Z,102641.72
2023-01-03T01:29:28.092Z,102638.22
2023-01-03T01:31:54.688Z,102637.41
2023-01-03T01:34:21.208Z,102644.69
2023-01-03T01:36:48.386Z,102642.00
2023-01-03T01:39:21.364Z,102644.41
2023-01-03T01:42:09.122Z,102645.44
2023-01-03T01:44:57.025Z,102642.47
2023-01-03T01:47:38.716Z,102643.56
2023-01-03T01:50:11.802Z,102642.75
2023-01-03T01:52:48.464Z,102652.97
2023-01-03T01:55:21.228Z,102656.50
2023-01-03T01:57:48.293Z,102661.06
2023-01-03T02:00:15.046Z,102648.94
2023-01-03T02:02:43.770Z,102658.06
2023-01-03T02:05:11.365Z,102642.50
2023-01-03T02:07:38.948Z,102646.25
2023-01-03T02:10:06.384Z,102652.13
2023-01-03T02:13:01.140Z,102650.56
2023-01-03T02:15:32.360Z,102649.13
2023-01-03T02:18:16.866Z,102651.56
2023-01-03T02:21:20.536Z,102643.44
2023-01-03T02:24:22.296Z,102648.28
2023-01-03T02:26:53.415Z,102656.88
2023-01-03T02:30:04.444Z,102657.13
2023-01-03T02:32:46.161Z,102661.31
2023-01-03T02:35:29.295Z,102650.78
2023-01-03T02:38:00.476Z,102666.94
2023-01-03T02:40:36.916Z,102660.25
2023-01-03T02:43:09.425Z,102667.22
2023-01-03T02:45:51.158Z,102672.38
2023-01-03T02:48:53.091Z,102664.78
2023-01-03T02:51:31.314Z,102668.84
2023-01-03T02:53:59.757Z,102666.69
2023-01-03T02:56:37.173Z,102658.91
2023-01-03T02:59:11.925Z,102660.50
2023-01-03T03:01:45.097Z,102664.31
2023-01-03T03:04:15.335Z,102662.69
2023-01-03T03:06:49.956Z,102661.34
2023-01-03T03:09:16.417Z,102662.16
2023-01-03T03:12:02.838Z,102649.28
2023-01-03T03:14:37.133Z,102659.47
2023-01-03T03:17:08.869Z,102661.09
2023-01-03T03:19:55.582Z,102645.22
2023-01-03T03:23:02.090Z,102643.91
2023-01-03T03:25:33.691Z,102651.47
2023-01-03T03:28:23.376Z,102637.28
2023-01-03T03:30:53.772Z,102646.44
2023-01-03T03:33:22.823Z,102651.88
2023-01-03T03:35:59.139Z,102652.94
2023-01-03T03:38:41.959Z,102638.16
2023-01-03T03:41:51.323Z,102654.25
2023-01-03T03:45:01.116Z,102652.63
2023-01-03T03:48:04.347Z,102637.63
2023-01-03T03:50:51.189Z,102646.75
2023-01-03T03:53:28.644Z,102655.31
2023-01-03T03:56:11.783Z,102652.63
2023-01-03T03:58:43.484Z,102651.84
2023-01-03T04:01:13.929Z,102656.94
2023-01-03T04:03:44.364Z,102665.81
2023-01-03T04:06:18.913Z,102661.78
2023-01-03T04:08:45.644Z,102671.72
2023-01-03T04:11:12.598Z,102668.78
2023-01-03T04:13:39.766Z,102670.66
2023-01-03T04:16:07.097Z,102666.34
2023-01-03T04:18:34.452Z,102673.06
2023-01-03T04:21:01.279Z,102672.31
2023-01-03T04:23:27.786Z,102675.00
2023-01-03T04:25:54.248Z,102677.97
2023-01-03T04:28:20.833Z,102678.25
2023-01-03T04:30:47.335Z,102687.41
2023-01-03T04:33:13.955Z,102685.84
2023-01-03T04:35:40.535Z,102685.56
2023-01-03T04:38:07.135Z,102690.41
2023-01-03T04:40:35.037Z,102689.34
2023-01-03T04:43:20.315Z,102687.97
2023-01-03T04:45:50.236Z,102692.00
2023-01-03T04:48:17.902Z,102690.13
2023-01-03T04:51:02.593Z,102694.13
2023-01-03T04:53:29.074Z,102684.72
2023-01-03T04:55:59.036Z,102681.22
2023-01-03T04:58:25.625Z,102677.41
2023-01-03T05:00:52.329Z,102681.13
2023-01-03T05:03:23.934Z,102685.69
2023-01-03T05:05:58.304Z,102688.63
2023-01-03T05:08:24.721Z,102687.22
2023-01-03T05:10:52.819Z,102682.63
2023-01-03T05:13:19.607Z,102692.00
2023-01-03T05:15:46.114Z,102689.84
2023-01-03T05:18:12.711Z,102689.31
2023-01-03T05:20:57.789Z,102691.47
2023-01-03T05:23:43.228Z,102686.41
2023-01-03T05:26:19.055Z,102685.88
2023-01-03T05:28:49.682Z,102681.25
2023-01-03T05:31:16.185Z,102675.88
2023-01-03T05:33:42.704Z,102669.47
2023-01-03T05:36:10.167Z,102673.47
2023-01-03T05:38:37.256Z,102672.63
2023-01-03T05:41:04.786Z,102664.31
2023-01-03T05:43:31.381Z,102667.81
2023-01-03T05:45:57.907Z,102671.25
2023-01-03T05:48:24.436Z,102672.53
2023-01-03T05:50:51.060Z,102680.28
2023-01-03T05:53:18.120Z,102673.56
2023-01-03T05:55:44.671Z,102660.66
2023-01-03T05:58:12.729Z,102658.22
2023-01-03T06:00:39.589Z,102657.75
2023-01-03T06:03:06.395Z,102654.78
2023-01-03T06:05:33.002Z,102661.53
2023-01-03T06:08:01.843Z,102655.56
2023-01-03T06:10:28.938Z,102658.22
2023-01-03T06:12:55.518Z,102665.41
2023-01-03T06:15:22.016Z,102653.06
2023-01-03T06:18:02.606Z,102649.59
2023-01-03T06:20:29.401Z,102657.16
2023-01-03T06:22:56.112Z,102656.63
2023-01-03T06:25:22.784Z,102646.13
2023-01-03T06:27:49.549Z,102654.19
2023-01-03T06:30:16.263Z,102645.88
2023-01-03T06:32:43.957Z,102642.44
2023-01-03T06:35:10.960Z,102655.06
2023-01-03T06:37:37.600Z,102647.22
2023-01-03T06:40:05.104Z,102655.28
2023-01-03T06:42:39.750Z,102649.16
2023-01-03T06:45:25.573Z,102654.53
2023-01-03T06:48:10.333Z,102654.00
2023-01-03T06:50:58.280Z,102652.44
2023-01-03T06:53:26.719Z,102648.19
2023-01-03T06:55:57.195Z,102661.63
2023-01-03T06:58:24.063Z,102653.56
2023-01-03T07:00:50.683Z,102653.63
2023-01-03T07:03:17.167Z,102655.22
2023-01-03T07:05:43.749Z,102652.59
2023-01-03T07:08:10.251Z,102645.31
2023-01-03T07:10:36.707Z,102644.00
2023-01-03T07:13:21.475Z,102635.44
2023-01-03T07:15:48.297Z,102644.03
2023-01-03T07:18:14.887Z,102645.38
2023-01-03T07:20:45.192Z,102640.31
2023-01-03T07:23:13.019Z,102644.66
2023-01-03T07:25:41.630Z,102638.50
2023-01-03T07:28:13.243Z,102648.44
2023-01-03T07:30:41.592Z,102645.22
2023-01-03T07:33:09.823Z,102647.91
2023-01-03T07:35:37.139Z,102652.50
2023-01-03T07:38:05.255Z,102673.22
2023-01-03T07:40:31.904Z,102684.72
2023-01-03T07:43:17.246Z,102686.06
2023-01-03T07:45:45.539Z,102670.00
2023-01-03T07:48:12.779Z,102665.72
2023-01-03T07:50:39.981Z,102660.34
2023-01-03T07:53:07.811Z,102667.63
2023-01-03T07:55:35.912Z,102667.91
2023-01-03T07:58:02.884Z,102670.09
2023-01-03T08:00:29.322Z,102670.34
2023-01-03T08:02:56.293Z,102673.59
2023-01-03T08:05:24.487Z,102668.47
2023-01-03T08:07:52.275Z,102662.53
2023-01-03T08:10:38.775Z,102651.25
2023-01-03T08:13:17.874Z,102675.22
2023-01-03T08:15:55.372Z,102683.56
2023-01-03T08:18:27.473Z,102682.75
2023-01-03T08:20:56.535Z,102669.81
2023-01-03T08:23:23.932Z,102676.31
2023-01-03T08:25:50.643Z,102672.00
2023-01-03T08:28:17.814Z,102681.44
2023-01-03T08:30:47.353Z,102684.66
2023-01-03T08:33:15.851Z,102687.34
2023-01-03T08:35:48.406Z,102683.88
2023-01-03T08:38:27.449Z,102685.22
2023-01-03T08:40:55.028Z,102693.03
2023-01-03T08:43:21.992Z,102689.78
2023-01-03T08:45:48.990Z,102687.97
2023-01-03T08:48:18.551Z,102692.25
2023-01-03T08:50:45.797Z,102694.16
2023-01-03T08:53:12.306Z,102689.84
2023-01-03T08:55:38.817Z,102686.06
2023-01-03T08:58:05.300Z,102697.91
2023-01-03T09:00:31.767Z,102707.34
2023-01-03T09:03:02.404Z,102693.34
2023-01-03T09:05:29.641Z,102692.00
2023-01-03T09:07:57.990Z,102706.81
2023-01-03T09:10:24.930Z,102697.13
2023-01-03T09:12:51.864Z,102693.91
2023-01-03T09:15:18.787Z,102694.44
2023-01-03T09:17:47.316Z,102688.25
2023-01-03T09:20:16.172Z,102687.97
2023-01-03T09:22:42.721Z,102691.72
2023-01-03T09:25:10.243Z,102679.38
2023-01-03T09:27:37.053Z,102683.66
2023-01-03T09:30:04.345Z,102682.06
2023-01-03T09:32:30.849Z,102684.47
2023-01-03T09:34:57.418Z,102681.22
2023-01-03T09:37:23.880Z,102679.63
2023-01-03T09:39:50.358Z,102676.38
2023-01-03T09:42:40.202Z,102678.28
2023-01-03T09:45:08.996Z,102685.53
2023-01-03T09:47:37.867Z,102670.97
2023-01-03T09:53:11.610Z,102674.72
2023-01-03T09:56:11.104Z,102676.91
2023-01-03T09:58:57.330Z,102680.94
2023-01-03T10:01:52.663Z,102677.69
2023-01-03T10:04:50.376Z,102683.63
2023-01-03T10:07:30.315Z,102691.44
2023-01-03T10:09:59.703Z,102684.16
2023-01-03T10:13:07.571Z,102695.47
2023-01-03T10:16:00.096Z,102690.91
2023-01-03T10:18:59.891Z,102690.09
2023-01-03T10:21:48.210Z,102688.47
2023-01-03T10:24:20.597Z,102690.63
2023-01-03T10:26:51.776Z,102694.94
2023-01-03T10:29:19.033Z,102693.56
2023-01-03T10:32:10.112Z,102691.44
2023-01-03T10:34:38.763Z,102687.38
2023-01-03T10:37:26.069Z,102680.91
2023-01-03T10:40:03.249Z,102677.66
2023-01-03T10:42:32.791Z,102686.03
2023-01-03T10:45:06.571Z,102663.38
2023-01-03T10:47:33.055Z,102676.59
2023-01-03T10:50:01.589Z,102677.91
2023-01-03T10:52:38.361Z,102687.91
2023-01-03T10:55:26.495Z,102687.91
2023-01-03T10:57:52.949Z,102693.28
2023-01-03T11:00:26.389Z,102691.41
2023-01-03T11:02:54.815Z,102686.81
2023-01-03T11:05:24.957Z,102686.00
2023-01-03T11:07:55.805Z,102690.31
2023-01-03T11:10:24.066Z,102689.00
2023-01-03T11:12:50.972Z,102690.31
2023-01-03T11:15:18.797Z,102688.44
2023-01-03T11:18:03.841Z,102667.38
2023-01-03T11:20:38.612Z,102660.91
2023-01-03T11:23:29.581Z,102658.97
2023-01-03T11:26:17.861Z,102654.66
2023-01-03T11:29:08.953Z,102657.06
2023-01-03T11:32:02.318Z,102663.53
2023-01-03T11:35:12.113Z,102651.66
2023-01-03T11:37:40.662Z,102652.47
2023-01-03T11:40:28.332Z,102651.91
2023-01-03T11:43:20.533Z,102647.84
2023-01-03T11:46:13.346Z,102625.16
2023-01-03T11:48:42.555Z,102626.25
2023-01-03T11:51:18.914Z,102626.47
2023-01-03T11:54:09.385Z,102631.34
2023-01-03T11:56:44.990Z,102625.38
2023-01-03T11:59:49.804Z,102627.50
2023-01-03T12:02:32.260Z,102619.41
2023-01-03T12:05:07.747Z,102614.50
2023-01-03T12:07:58.631Z,102618.75
2023-01-03T12:10:47.632Z,102613.34
2023-01-03T12:13:25.260Z,102607.09
2023-01-03T12:16:23.530Z,102598.66
2023-01-03T12:18:58.504Z,102597.84
2023-01-03T12:21:40.407Z,102597.84
2023-01-03T12:24:20.372Z,102606.22
2023-01-03T12:26:53.621Z,102591.91
2023-01-03T12:29:31.504Z,102591.84
2023-01-03T12:32:07.651Z,102590.47
2023-01-03T12:34:39.438Z,102606.69
2023-01-03T12:37:15.318Z,102608.56
2023-01-03T12:39:56.846Z,102592.88
2023-01-03T12:42:29.429Z,102592.56
2023-01-03T12:45:00.185Z,102594.72
2023-01-03T12:47:39.997Z,102579.84
2023-01-03T12:50:28.305Z,102575.75
2023-01-03T12:53:03.872Z,102567.13
2023-01-03T12:55:55.583Z,102573.56
2023-01-03T12:58:54.443Z,102581.16
2023-01-03T13:01:34.455Z,102583.88
2023-01-03T13:04:41.545Z,102599.28
2023-01-03T13:07:16.623Z,102593.13
2023-01-03T13:09:58.900Z,102587.97
2023-01-03T13:12:34.959Z,102598.56
2023-01-03T13:15:26.357Z,102588.84
2023-01-03T13:18:17.652Z,102585.03
2023-01-03T13:20:50.037Z,102585.28
2023-01-03T13:23:32.719Z,102573.41
2023-01-03T13:26:24.069Z,102576.63
2023-01-03T13:28:51.679Z,102566.84
2023-01-03T13:31:18.182Z,102568.72
2023-01-03T13:34:03.762Z,102567.63
2023-01-03T13:37:05.325Z,102566.22
2023-01-03T13:39:41.004Z,102553.78
2023-01-03T13:42:20.883Z,102575.63
2023-01-03T13:44:47.565Z,102571.31
2023-01-03T13:47:26.412Z,102573.75
2023-01-03T13:49:54.123Z,102577.28
2023-01-03T13:52:56.907Z,102571.03
2023-01-03T13:55:39.903Z,102567.38
2023-01-03T13:58:25.848Z,102552.38
2023-01-03T14:01:05.071Z,102542.53
2023-01-03T14:04:00.268Z,102554.84
2023-01-03T14:07:01.710Z,102543.38
2023-01-03T14:09:48.486Z,102542.53
2023-01-03T14:12:49.584Z,102547.03
2023-01-03T14:15:26.384Z,102530.88
2023-01-03T14:18:01.966Z,102536.06
2023-01-03T14:20:34.263Z,102531.25
2023-01-03T14:23:23.988Z,102531.53
2023-01-03T14:25:52.514Z,102530.16
2023-01-03T14:28:20.982Z,102528.53
2023-01-03T14:31:00.760Z,102534.50
2023-01-03T14:33:36.344Z,102538.06
2023-01-03T14:36:07.399Z,102544.09
2023-01-03T14:38:35.382Z,102535.22
2023-01-03T14:41:03.184Z,102541.72
2023-01-03T14:43:32.422Z,102543.34
2023-01-03T14:46:08.205Z,102533.09
2023-01-03T14:48:34.753Z,102540.91
2023-01-03T14:51:02.964Z,102527.72
2023-01-03T14:53:31.990Z,102523.41
2023-01-03T14:56:00.054Z,102518.00
2023-01-03T14:58:33.938Z,102515.84
2023-01-03T15:01:06.216Z,102510.72
2023-01-03T15:03:39.477Z,102515.03
2023-01-03T15:06:19.203Z,102515.63
2023-01-03T15:08:47.146Z,102515.03
2023-01-03T15:11:14.562Z,102514.81
2023-01-03T15:13:56.492Z,102525.03
2023-01-03T15:16:36.642Z,102517.47
2023-01-03T15:19:09.709Z,102516.13
2023-01-03T15:21:36.199Z,102510.22
2023-01-03T15:24:03.019Z,102508.09
2023-01-03T15:26:41.825Z,102511.34
2023-01-03T15:29:20.747Z,102517.84
2023-01-03T15:32:00.621Z,102518.41
2023-01-03T15:34:30.002Z,102516.81
2023-01-03T15:37:12.110Z,102519.00
2023-01-03T15:39:49.011Z,102518.69
2023-01-03T15:42:50.182Z,102507.13
2023-01-03T15:45:33.133Z,102517.72
2023-01-03T15:48:01.657Z,102509.06
2023-01-03T15:50:40.306Z,102512.84
2023-01-03T15:53:11.309Z,102513.94
2023-01-03T15:55:37.947Z,102507.75
2023-01-03T15:58:04.471Z,102516.94
2023-01-03T16:00:31.096Z,102520.22
2023-01-03T16:02:57.659Z,102515.59
2023-01-03T16:05:24.299Z,102511.53
2023-01-03T16:07:51.052Z,102494.81
2023-01-03T16:10:17.676Z,102493.50
2023-01-03T16:12:44.373Z,102487.00
2023-01-03T16:15:22.607Z,102484.81
2023-01-03T16:17:50.534Z,102490.22
2023-01-03T16:20:18.643Z,102495.63
2023-01-03T16:22:59.700Z,102488.84
2023-01-03T16:25:28.445Z,102492.63
2023-01-03T16:27:55.193Z,102499.63
2023-01-03T16:30:21.823Z,102497.75
2023-01-03T16:32:48.365Z,102485.63
2023-01-03T16:35:17.638Z,102483.72
2023-01-03T16:37:44.381Z,102468.63
2023-01-03T16:40:21.071Z,102483.16
2023-01-03T16:42:47.938Z,102473.94
2023-01-03T16:45:15.122Z,102477.50
2023-01-03T16:47:43.437Z,102481.00
2023-01-03T16:50:17.391Z,102479.09
2023-01-03T16:52:46.908Z,102472.09
2023-01-03T16:55:22.228Z,102462.09
2023-01-03T16:57:54.201Z,102460.44
2023-01-03T17:00:23.668Z,102458.28
2023-01-03T17:02:50.233Z,102450.50
2023-01-03T17:05:17.532Z,102466.69
2023-01-03T17:07:47.537Z,102453.19
2023-01-03T17:10:23.071Z,102450.50
2023-01-03T17:12:49.587Z,102442.38
2023-01-03T17:15:16.039Z,102447.78
2023-01-03T17:17:42.496Z,102450.50
2023-01-03T17:20:16.314Z,102435.09
2023-01-03T17:22:48.843Z,102436.91
2023-01-03T17:25:15.398Z,102447.19
2023-01-03T17:27:44.616Z,102441.00
2023-01-03T17:30:18.344Z,102437.44
2023-01-03T17:32:44.818Z,102446.34
2023-01-03T17:35:16.202Z,102437.16
2023-01-03T17:38:14.153Z,102439.88
2023-01-03T17:40:34.314Z,102429.06
2023-01-03T17:43:01.929Z,102432.03
2023-01-03T17:45:47.220Z,102421.22
2023-01-03T17:48:32.965Z,102419.63
2023-01-03T17:51:01.524Z,102424.72
2023-01-03T17:53:28.323Z,102415.03
2023-01-03T17:55:54.848Z,102413.41
2023-01-03T17:58:37.964Z,102416.91
2023-01-03T18:01:06.029Z,102427.69
2023-01-03T18:03:32.588Z,102424.19
2023-01-03T18:06:02.693Z,102422.00
2023-01-03T18:08:29.277Z,102414.69
2023-01-03T18:10:55.942Z,102413.88
2023-01-03T18:13:37.650Z,102415.28
2023-01-03T18:16:04.639Z,102404.97
2023-01-03T18:18:31.527Z,102397.69
2023-01-03T18:20:58.444Z,102397.38
2023-01-03T18:23:26.739Z,102396.59
2023-01-03T18:25:54.384Z,102397.09
2023-01-03T18:28:24.735Z,102395.50
2023-01-03T18:30:51.873Z,102399.50
2023-01-03T18:33:18.689Z,102389.53
2023-01-03T18:35:45.479Z,102402.75
2023-01-03T18:38:26.457Z,102392.75
2023-01-03T18:40:57.469Z,102371.94
2023-01-03T18:43:28.952Z,102370.03
2023-01-03T18:45:55.568Z,102375.72
2023-01-03T18:48:22.860Z,102365.72
2023-01-03T18:50:57.988Z,102367.63
2023-01-03T18:53:29.153Z,102353.03
2023-01-03T18:55:56.192Z,102349.22
2023-01-03T18:58:38.265Z,102338.94
2023-01-03T19:01:05.859Z,102341.13
2023-01-03T19:03:34.424Z,102342.72
2023-01-03T19:06:02.152Z,102345.13
2023-01-03T19:08:33.500Z,102340.31
2023-01-03T19:11:06.278Z,102338.13
2023-01-03T19:13:50.053Z,102349.75
2023-01-03T19:16:29.556Z,102340.31
2023-01-03T19:18:56.915Z,102346.53
2023-01-03T19:21:26.153Z,102339.75
2023-01-03T19:24:05.587Z,102347.53
2023-01-03T19:26:36.175Z,102344.59
2023-01-03T19:29:05.277Z,102318.38
2023-01-03T19:31:41.623Z,102323.47
2023-01-03T19:34:15.761Z,102309.47
2023-01-03T19:36:42.274Z,102294.06
2023-01-03T19:39:09.639Z,102291.34
2023-01-03T19:42:01.315Z,102293.25
2023-01-03T19:44:27.807Z,102301.06
2023-01-03T19:46:54.336Z,102292.97
2023-01-03T19:49:21.286Z,102289.75
2023-01-03T19:51:48.071Z,102286.22
2023-01-03T19:54:14.564Z,102271.91
2023-01-03T19:56:41.095Z,102273.81
2023-01-03T19:59:08.121Z,102268.69
2023-01-03T20:01:50.449Z,102255.50
2023-01-03T20:04:21.837Z,102257.09
2023-01-03T20:06:48.508Z,102251.69
2023-01-03T20:09:15.041Z,102265.50
2023-01-03T20:11:41.940Z,102252.59
2023-01-03T20:14:19.243Z,102267.09
2023-01-03T20:16:46.142Z,102262.78
2023-01-03T20:19:20.676Z,102247.69
2023-01-03T20:21:49.499Z,102247.19
2023-01-03T20:24:23.378Z,102239.28
2023-01-03T20:26:51.089Z,102242.78
2023-01-03T20:29:18.260Z,102238.69
2023-01-03T20:31:44.854Z,102220.88
2023-01-03T20:34:11.535Z,102212.47
2023-01-03T20:36:42.901Z,102212.47
2023-01-03T20:39:20.690Z,102213.28
2023-01-03T20:41:47.175Z,102203.31
2023-01-03T20:44:13.646Z,102211.13
2023-01-03T20:46:40.508Z,102194.59
2023-01-03T20:49:16.343Z,102206.22
2023-01-03T20:51:43.085Z,102209.72
2023-01-03T20:54:10.513Z,102198.13
2023-01-03T20:56:37.123Z,102198.63
2023-01-03T20:59:04.375Z,102200.22
2023-01-03T21:01:31.485Z,102186.22
2023-01-03T21:03:58.179Z,102199.13
2023-01-03T21:06:30.066Z,102196.94
2023-01-03T21:08:57.758Z,102193.44
2023-01-03T21:11:33.038Z,102185.34
2023-01-03T21:14:00.723Z,102195.31
2023-01-03T21:16:46.510Z,102194.25
2023-01-03T21:19:24.191Z,102178.84
2023-01-03T21:21:53.359Z,102184.25
2023-01-03T21:24:22.880Z,102165.31
2023-01-03T21:26:49.739Z,102154.53
2023-01-03T21:29:17.139Z,102150.72
2023-01-03T21:31:44.171Z,102156.63
2023-01-03T21:34:19.851Z,102149.31
2023-01-03T21:36:46.987Z,102131.50
2023-01-03T21:39:13.809Z,102119.91
2023-01-03T21:41:59.174Z,102133.41
2023-01-03T21:44:25.721Z,102118.00
2023-01-03T21:46:52.518Z,102118.00
2023-01-03T21:49:19.276Z,102113.69
2023-01-03T21:51:45.732Z,102105.28
2023-01-03T21:54:13.389Z,102114.78
2023-01-03T21:56:45.077Z,102097.19
2023-01-03T21:59:15.648Z,102094.19
2023-01-03T22:02:02.739Z,102103.09
2023-01-03T22:04:29.666Z,102095.78
2023-01-03T22:07:00.931Z,102096.00
2023-01-03T22:09:47.598Z,102080.28
2023-01-03T22:12:15.839Z,102077.78
2023-01-03T22:14:43.865Z,102077.50
2023-01-03T22:17:10.314Z,102081.50
2023-01-03T22:19:36.857Z,102083.91
2023-01-03T22:22:03.460Z,102072.78
2023-01-03T22:24:29.991Z,102076.78
2023-01-03T22:26:56.469Z,102071.13
2023-01-03T22:29:22.960Z,102069.22
2023-01-03T22:31:49.442Z,102062.72
2023-01-03T22:34:15.889Z,102061.09
2023-01-03T22:36:42.337Z,102070.50
2023-01-03T22:39:08.818Z,102066.41
2023-01-03T22:41:35.323Z,102053.69
2023-01-03T22:44:01.811Z,102066.41
2023-01-03T22:46:28.434Z,102056.09
2023-01-03T22:48:55.030Z,102046.59
2023-01-03T22:51:21.990Z,102049.81
2023-01-03T22:53:49.153Z,102039.00
2023-01-03T22:56:17.074Z,102034.91
2023-01-03T22:58:45.179Z,102045.72
2023-01-03T23:01:28.044Z,102030.28
2023-01-03T23:03:56.768Z,102029.19
2023-01-03T23:06:23.476Z,102032.09
2023-01-03T23:08:52.809Z,102010.78
2023-01-03T23:11:40.631Z,102011.28
2023-01-03T23:14:11.898Z,102012.88
2023-01-03T23:16:38.705Z,101993.66
2023-01-03T23:19:08.586Z,102007.97
2023-01-03T23:21:35.622Z,101979.63
2023-01-03T23:24:02.467Z,101981.72
2023-01-03T23:26:29.212Z,101964.22
2023-01-03T23:28:57.523Z,101959.59
2023-01-03T23:31:27.170Z,101966.91
2023-01-03T23:33:55.231Z,101958.97
2023-01-03T23:36:21.796Z,101954.19
2023-01-03T23:38:48.243Z,101949.59
2023-01-03T23:41:14.793Z,101936.38
2023-01-03T23:43:41.364Z,101926.75
2023-01-03T23:46:07.872Z,101932.47
2023-01-03T23:48:34.499Z,101910.31
2023-01-03T23:51:05.392Z,101914.44
2023-01-03T23:53:35.038Z,101910.13
2023-01-03T23:56:08.165Z,101901.53
2023-01-03T23:58:34.803Z,101889.09
